sensor_id;sensor_type;location;lat;lon;timestamp;temperature;humidity
25410;DHT22;13339;50.840;4.346;2023-09-18T00:00:49;24.20;99.90
25410;DHT22;13339;50.840;4.346;2023-09-18T00:03:21;24.00;99.90
25410;DHT22;13339;50.840;4.346;2023-09-18T00:05:50;24.00;99.90
25410;DHT22;13339;50.840;4.346;2023-09-18T00:08:17;24.00;99.90
25410;DHT22;13339;50.840;4.346;2023-09-18T00:10:50;24.00;99.90
25410;DHT22;13339;50.840;4.346;2023-09-18T00:13:16;24.10;99.90
25410;DHT22;13339;50.840;4.346;2023-09-18T00:15:42;24.10;99.90
25410;DHT22;13339;50.840;4.346;2023-09-18T00:18:10;24.20;99.90
25410;DHT22;13339;50.840;4.346;2023-09-18T00:20:36;24.30;99.90
25410;DHT22;13339;50.840;4.346;2023-09-18T00:23:01;24.20;99.90
25410;DHT22;13339;50.840;4.346;2023-09-18T00:25:28;24.30;99.90
25410;DHT22;13339;50.840;4.346;2023-09-18T00:27:53;24.30;99.90
25410;DHT22;13339;50.840;4.346;2023-09-18T00:30:19;24.30;99.90
25410;DHT22;13339;50.840;4.346;2023-09-18T00:32:44;24.30;99.90
25410;DHT22;13339;50.840;4.346;2023-09-18T00:35:12;24.30;99.90
25410;DHT22;13339;50.840;4.346;2023-09-18T00:37:38;24.30;99.90
25410;DHT22;13339;50.840;4.346;2023-09-18T00:40:06;24.30;99.90
25410;DHT22;13339;50.840;4.346;2023-09-18T00:42:33;24.30;99.90
25410;DHT22;13339;50.840;4.346;2023-09-18T00:44:58;24.20;99.90
25410;DHT22;13339;50.840;4.346;2023-09-18T00:47:24;24.20;99.90
25410;DHT22;13339;50.840;4.346;2023-09-18T00:49:51;24.20;99.90
25410;DHT22;13339;50.840;4.346;2023-09-18T00:52:17;24.10;99.90
25410;DHT22;13339;50.840;4.346;2023-09-18T00:54:45;24.10;99.90
25410;DHT22;13339;50.840;4.346;2023-09-18T00:57:11;24.00;99.90
25410;DHT22;13339;50.840;4.346;2023-09-18T00:59:38;23.90;99.90
25410;DHT22;13339;50.840;4.346;2023-09-18T01:02:04;23.90;99.90
25410;DHT22;13339;50.840;4.346;2023-09-18T01:04:30;23.90;99.90
25410;DHT22;13339;50.840;4.346;2023-09-18T01:06:58;23.70;99.90
25410;DHT22;13339;50.840;4.346;2023-09-18T01:09:26;23.70;99.90
25410;DHT22;13339;50.840;4.346;2023-09-18T01:12:00;23.70;99.90
25410;DHT22;13339;50.840;4.346;2023-09-18T01:15:06;23.60;99.90
25410;DHT22;13339;50.840;4.346;2023-09-18T01:17:35;23.50;99.90
25410;DHT22;13339;50.840;4.346;2023-09-18T01:20:05;23.50;99.90
25410;DHT22;13339;50.840;4.346;2023-09-18T01:22:31;23.40;99.90
25410;DHT22;13339;50.840;4.346;2023-09-18T01:24:57;23.40;99.90
25410;DHT22;13339;50.840;4.346;2023-09-18T01:27:23;23.50;99.90
25410;DHT22;13339;50.840;4.346;2023-09-18T01:29:49;23.30;99.90
25410;DHT22;13339;50.840;4.346;2023-09-18T01:32:15;23.20;99.90
25410;DHT22;13339;50.840;4.346;2023-09-18T01:34:51;23.30;99.90
25410;DHT22;13339;50.840;4.346;2023-09-18T01:37:20;23.30;99.90
25410;DHT22;13339;50.840;4.346;2023-09-18T01:39:48;23.40;99.90
25410;DHT22;13339;50.840;4.346;2023-09-18T01:42:15;23.40;99.90
25410;DHT22;13339;50.840;4.346;2023-09-18T01:44:41;23.30;99.90
25410;DHT22;13339;50.840;4.346;2023-09-18T01:47:12;23.20;99.90
25410;DHT22;13339;50.840;4.346;2023-09-18T01:49:39;23.30;99.90
25410;DHT22;13339;50.840;4.346;2023-09-18T01:52:06;23.30;99.90
25410;DHT22;13339;50.840;4.346;2023-09-18T01:54:33;23.30;99.90
25410;DHT22;13339;50.840;4.346;2023-09-18T01:56:59;23.40;99.90
25410;DHT22;13339;50.840;4.346;2023-09-18T01:59:25;23.40;99.90
25410;DHT22;13339;50.840;4.346;2023-09-18T02:01:52;23.30;99.90
25410;DHT22;13339;50.840;4.346;2023-09-18T02:04:19;23.20;99.90
25410;DHT22;13339;50.840;4.346;2023-09-18T02:06:46;23.30;99.90
25410;DHT22;13339;50.840;4.346;2023-09-18T02:09:13;23.30;99.90
25410;DHT22;13339;50.840;4.346;2023-09-18T02:11:40;23.50;99.90
25410;DHT22;13339;50.840;4.346;2023-09-18T02:14:06;23.40;99.90
25410;DHT22;13339;50.840;4.346;2023-09-18T02:16:33;23.50;99.90
25410;DHT22;13339;50.840;4.346;2023-09-18T02:18:59;23.50;99.90
25410;DHT22;13339;50.840;4.346;2023-09-18T02:21:25;23.50;99.90
25410;DHT22;13339;50.840;4.346;2023-09-18T02:23:52;23.40;99.90
25410;DHT22;13339;50.840;4.346;2023-09-18T02:26:19;23.30;99.90
25410;DHT22;13339;50.840;4.346;2023-09-18T02:28:44;23.00;99.90
25410;DHT22;13339;50.840;4.346;2023-09-18T02:31:10;22.80;99.90
25410;DHT22;13339;50.840;4.346;2023-09-18T02:33:39;22.80;99.90
25410;DHT22;13339;50.840;4.346;2023-09-18T02:36:05;22.60;99.90
25410;DHT22;13339;50.840;4.346;2023-09-18T02:38:31;22.70;99.90
25410;DHT22;13339;50.840;4.346;2023-09-18T02:40:57;22.80;99.90
25410;DHT22;13339;50.840;4.346;2023-09-18T02:43:23;22.80;99.90
25410;DHT22;13339;50.840;4.346;2023-09-18T02:45:49;22.80;99.90
25410;DHT22;13339;50.840;4.346;2023-09-18T02:48:16;22.80;99.90
25410;DHT22;13339;50.840;4.346;2023-09-18T02:50:41;22.90;99.90
25410;DHT22;13339;50.840;4.346;2023-09-18T02:53:12;22.90;99.90
25410;DHT22;13339;50.840;4.346;2023-09-18T02:55:41;22.90;99.90
25410;DHT22;13339;50.840;4.346;2023-09-18T02:58:07;22.80;99.90
25410;DHT22;13339;50.840;4.346;2023-09-18T03:00:34;22.80;99.90
25410;DHT22;13339;50.840;4.346;2023-09-18T03:03:00;22.80;99.90
25410;DHT22;13339;50.840;4.346;2023-09-18T03:05:25;22.60;99.90
25410;DHT22;13339;50.840;4.346;2023-09-18T03:07:52;22.60;99.90
25410;DHT22;13339;50.840;4.346;2023-09-18T03:10:17;22.60;99.90
25410;DHT22;13339;50.840;4.346;2023-09-18T03:12:47;22.60;99.90
25410;DHT22;13339;50.840;4.346;2023-09-18T03:15:13;22.60;99.90
25410;DHT22;13339;50.840;4.346;2023-09-18T03:17:39;22.70;99.90
25410;DHT22;13339;50.840;4.346;2023-09-18T03:20:08;22.70;99.90
25410;DHT22;13339;50.840;4.346;2023-09-18T03:22:34;22.70;99.90
25410;DHT22;13339;50.840;4.346;2023-09-18T03:25:00;22.70;99.90
25410;DHT22;13339;50.840;4.346;2023-09-18T03:27:25;22.70;99.90
25410;DHT22;13339;50.840;4.346;2023-09-18T03:29:54;22.70;99.90
25410;DHT22;13339;50.840;4.346;2023-09-18T03:32:20;22.70;99.90
25410;DHT22;13339;50.840;4.346;2023-09-18T03:34:46;22.60;99.90
25410;DHT22;13339;50.840;4.346;2023-09-18T03:37:12;22.50;99.90
25410;DHT22;13339;50.840;4.346;2023-09-18T03:39:38;22.50;99.90
25410;DHT22;13339;50.840;4.346;2023-09-18T03:42:03;22.30;99.90
25410;DHT22;13339;50.840;4.346;2023-09-18T03:44:29;22.30;99.90
25410;DHT22;13339;50.840;4.346;2023-09-18T03:46:55;22.20;99.90
25410;DHT22;13339;50.840;4.346;2023-09-18T03:49:20;22.30;99.90
25410;DHT22;13339;50.840;4.346;2023-09-18T03:51:46;22.20;99.90
25410;DHT22;13339;50.840;4.346;2023-09-18T03:54:12;22.00;99.90
25410;DHT22;13339;50.840;4.346;2023-09-18T03:56:38;22.10;99.90
25410;DHT22;13339;50.840;4.346;2023-09-18T03:59:04;22.10;99.90
25410;DHT22;13339;50.840;4.346;2023-09-18T04:01:30;22.10;99.90
25410;DHT22;13339;50.840;4.346;2023-09-18T04:03:56;22.20;99.90
25410;DHT22;13339;50.840;4.346;2023-09-18T04:06:22;22.20;99.90
25410;DHT22;13339;50.840;4.346;2023-09-18T04:08:50;22.20;99.90
25410;DHT22;13339;50.840;4.346;2023-09-18T04:11:16;22.10;99.90
25410;DHT22;13339;50.840;4.346;2023-09-18T04:13:42;22.20;99.90
25410;DHT22;13339;50.840;4.346;2023-09-18T04:16:08;22.30;99.90
25410;DHT22;13339;50.840;4.346;2023-09-18T04:18:33;22.40;99.90
25410;DHT22;13339;50.840;4.346;2023-09-18T04:20:59;22.40;99.90
25410;DHT22;13339;50.840;4.346;2023-09-18T04:23:26;22.30;99.90
25410;DHT22;13339;50.840;4.346;2023-09-18T04:25:53;22.20;99.90
25410;DHT22;13339;50.840;4.346;2023-09-18T04:28:20;22.20;99.90
25410;DHT22;13339;50.840;4.346;2023-09-18T04:30:46;22.20;99.90
25410;DHT22;13339;50.840;4.346;2023-09-18T04:33:16;22.30;99.90
25410;DHT22;13339;50.840;4.346;2023-09-18T04:35:43;22.30;99.90
25410;DHT22;13339;50.840;4.346;2023-09-18T04:38:09;22.20;99.90
25410;DHT22;13339;50.840;4.346;2023-09-18T04:40:40;22.20;99.90
25410;DHT22;13339;50.840;4.346;2023-09-18T04:43:06;22.20;99.90
25410;DHT22;13339;50.840;4.346;2023-09-18T04:45:32;22.10;99.90
25410;DHT22;13339;50.840;4.346;2023-09-18T04:47:58;22.10;99.90
25410;DHT22;13339;50.840;4.346;2023-09-18T04:50:23;22.00;99.90
25410;DHT22;13339;50.840;4.346;2023-09-18T04:52:52;21.90;99.90
25410;DHT22;13339;50.840;4.346;2023-09-18T04:55:19;21.90;99.90
25410;DHT22;13339;50.840;4.346;2023-09-18T04:57:45;21.90;99.90
25410;DHT22;13339;50.840;4.346;2023-09-18T05:00:11;21.80;99.90
25410;DHT22;13339;50.840;4.346;2023-09-18T05:02:39;21.80;99.90
25410;DHT22;13339;50.840;4.346;2023-09-18T05:05:06;21.80;99.90
25410;DHT22;13339;50.840;4.346;2023-09-18T05:07:34;21.80;99.90
25410;DHT22;13339;50.840;4.346;2023-09-18T05:10:00;21.70;99.90
25410;DHT22;13339;50.840;4.346;2023-09-18T05:12:26;21.70;99.90
25410;DHT22;13339;50.840;4.346;2023-09-18T05:14:51;21.70;99.90
25410;DHT22;13339;50.840;4.346;2023-09-18T05:17:17;21.70;99.90
25410;DHT22;13339;50.840;4.346;2023-09-18T05:19:44;21.70;99.90
25410;DHT22;13339;50.840;4.346;2023-09-18T05:22:10;21.60;99.90
25410;DHT22;13339;50.840;4.346;2023-09-18T05:24:37;21.60;99.90
25410;DHT22;13339;50.840;4.346;2023-09-18T05:27:03;21.60;99.90
25410;DHT22;13339;50.840;4.346;2023-09-18T05:29:28;21.50;99.90
25410;DHT22;13339;50.840;4.346;2023-09-18T05:31:54;21.40;99.90
25410;DHT22;13339;50.840;4.346;2023-09-18T05:34:20;21.50;99.90
25410;DHT22;13339;50.840;4.346;2023-09-18T05:36:45;21.50;99.90
25410;DHT22;13339;50.840;4.346;2023-09-18T05:39:11;21.50;99.90
25410;DHT22;13339;50.840;4.346;2023-09-18T05:41:39;21.50;99.90
25410;DHT22;13339;50.840;4.346;2023-09-18T05:44:05;21.40;99.90
25410;DHT22;13339;50.840;4.346;2023-09-18T05:46:34;21.40;99.90
25410;DHT22;13339;50.840;4.346;2023-09-18T05:49:00;21.40;99.90
25410;DHT22;13339;50.840;4.346;2023-09-18T05:51:26;21.30;99.90
25410;DHT22;13339;50.840;4.346;2023-09-18T05:53:52;21.40;99.90
25410;DHT22;13339;50.840;4.346;2023-09-18T05:56:18;21.30;99.90
25410;DHT22;13339;50.840;4.346;2023-09-18T05:58:44;21.30;99.90
25410;DHT22;13339;50.840;4.346;2023-09-18T06:01:09;21.20;99.90
25410;DHT22;13339;50.840;4.346;2023-09-18T06:03:35;21.20;99.90
25410;DHT22;13339;50.840;4.346;2023-09-18T06:06:10;21.10;99.90
25410;DHT22;13339;50.840;4.346;2023-09-18T06:08:35;21.00;99.90
25410;DHT22;13339;50.840;4.346;2023-09-18T06:11:01;21.00;99.90
25410;DHT22;13339;50.840;4.346;2023-09-18T06:13:27;21.00;99.90
25410;DHT22;13339;50.840;4.346;2023-09-18T06:15:56;21.10;99.90
25410;DHT22;13339;50.840;4.346;2023-09-18T06:18:22;21.20;99.90
25410;DHT22;13339;50.840;4.346;2023-09-18T06:20:48;21.20;99.90
25410;DHT22;13339;50.840;4.346;2023-09-18T06:23:14;21.20;99.90
25410;DHT22;13339;50.840;4.346;2023-09-18T06:25:40;21.10;99.90
25410;DHT22;13339;50.840;4.346;2023-09-18T06:28:06;21.10;99.90
25410;DHT22;13339;50.840;4.346;2023-09-18T06:30:32;21.20;99.90
25410;DHT22;13339;50.840;4.346;2023-09-18T06:32:59;21.20;99.90
25410;DHT22;13339;50.840;4.346;2023-09-18T06:35:25;21.10;99.90
25410;DHT22;13339;50.840;4.346;2023-09-18T06:37:50;21.10;99.90
25410;DHT22;13339;50.840;4.346;2023-09-18T06:40:16;21.10;99.90
25410;DHT22;13339;50.840;4.346;2023-09-18T06:42:42;21.10;99.90
25410;DHT22;13339;50.840;4.346;2023-09-18T06:45:08;21.10;99.90
25410;DHT22;13339;50.840;4.346;2023-09-18T06:47:34;21.20;99.90
25410;DHT22;13339;50.840;4.346;2023-09-18T06:50:00;21.30;99.90
25410;DHT22;13339;50.840;4.346;2023-09-18T06:52:26;21.30;99.90
25410;DHT22;13339;50.840;4.346;2023-09-18T06:54:53;21.30;99.90
25410;DHT22;13339;50.840;4.346;2023-09-18T06:57:19;21.30;99.90
25410;DHT22;13339;50.840;4.346;2023-09-18T06:59:46;21.40;99.90
25410;DHT22;13339;50.840;4.346;2023-09-18T07:02:12;21.50;99.90
25410;DHT22;13339;50.840;4.346;2023-09-18T07:04:41;21.40;99.90
25410;DHT22;13339;50.840;4.346;2023-09-18T07:07:14;21.30;99.90
25410;DHT22;13339;50.840;4.346;2023-09-18T07:09:41;21.30;99.90
25410;DHT22;13339;50.840;4.346;2023-09-18T07:12:07;21.30;99.90
25410;DHT22;13339;50.840;4.346;2023-09-18T07:14:35;21.40;99.90
25410;DHT22;13339;50.840;4.346;2023-09-18T07:17:00;21.40;99.90
25410;DHT22;13339;50.840;4.346;2023-09-18T07:19:26;21.40;99.90
25410;DHT22;13339;50.840;4.346;2023-09-18T07:21:52;21.40;99.90
25410;DHT22;13339;50.840;4.346;2023-09-18T07:24:17;21.50;99.90
25410;DHT22;13339;50.840;4.346;2023-09-18T07:26:44;21.50;99.90
25410;DHT22;13339;50.840;4.346;2023-09-18T07:29:11;21.50;99.90
25410;DHT22;13339;50.840;4.346;2023-09-18T07:31:36;21.50;99.90
25410;DHT22;13339;50.840;4.346;2023-09-18T07:34:02;21.50;99.90
25410;DHT22;13339;50.840;4.346;2023-09-18T07:36:29;21.50;99.90
25410;DHT22;13339;50.840;4.346;2023-09-18T07:38:55;21.40;99.90
25410;DHT22;13339;50.840;4.346;2023-09-18T07:41:22;21.50;99.90
25410;DHT22;13339;50.840;4.346;2023-09-18T07:43:48;21.50;99.90
25410;DHT22;13339;50.840;4.346;2023-09-18T07:46:13;21.50;99.90
25410;DHT22;13339;50.840;4.346;2023-09-18T07:48:39;21.50;99.90
25410;DHT22;13339;50.840;4.346;2023-09-18T07:51:05;21.50;99.90
25410;DHT22;13339;50.840;4.346;2023-09-18T07:53:30;21.50;99.90
25410;DHT22;13339;50.840;4.346;2023-09-18T07:55:58;21.60;99.90
25410;DHT22;13339;50.840;4.346;2023-09-18T07:58:25;21.70;99.90
25410;DHT22;13339;50.840;4.346;2023-09-18T08:00:55;21.80;99.90
25410;DHT22;13339;50.840;4.346;2023-09-18T08:03:20;22.20;99.90
25410;DHT22;13339;50.840;4.346;2023-09-18T08:05:50;22.50;99.90
25410;DHT22;13339;50.840;4.346;2023-09-18T08:08:18;22.70;99.90
25410;DHT22;13339;50.840;4.346;2023-09-18T08:10:49;22.80;99.90
25410;DHT22;13339;50.840;4.346;2023-09-18T08:13:15;22.70;99.90
25410;DHT22;13339;50.840;4.346;2023-09-18T08:15:40;22.50;99.90
25410;DHT22;13339;50.840;4.346;2023-09-18T08:18:06;22.50;99.90
25410;DHT22;13339;50.840;4.346;2023-09-18T08:20:32;22.40;99.90
25410;DHT22;13339;50.840;4.346;2023-09-18T08:22:58;22.30;99.90
25410;DHT22;13339;50.840;4.346;2023-09-18T08:25:26;22.30;99.90
25410;DHT22;13339;50.840;4.346;2023-09-18T08:27:52;22.40;99.90
25410;DHT22;13339;50.840;4.346;2023-09-18T08:30:18;22.50;99.90
25410;DHT22;13339;50.840;4.346;2023-09-18T08:32:46;22.50;99.90
25410;DHT22;13339;50.840;4.346;2023-09-18T08:35:12;22.50;99.90
25410;DHT22;13339;50.840;4.346;2023-09-18T08:37:40;22.50;99.90
25410;DHT22;13339;50.840;4.346;2023-09-18T08:40:10;22.40;99.90
25410;DHT22;13339;50.840;4.346;2023-09-18T08:42:47;22.40;99.90
25410;DHT22;13339;50.840;4.346;2023-09-18T08:45:22;22.40;99.90
25410;DHT22;13339;50.840;4.346;2023-09-18T08:47:50;22.30;99.90
25410;DHT22;13339;50.840;4.346;2023-09-18T08:50:17;22.20;99.90
25410;DHT22;13339;50.840;4.346;2023-09-18T08:52:45;22.30;99.90
25410;DHT22;13339;50.840;4.346;2023-09-18T08:55:13;22.30;99.90
25410;DHT22;13339;50.840;4.346;2023-09-18T08:57:39;22.30;99.90
25410;DHT22;13339;50.840;4.346;2023-09-18T09:00:07;22.40;99.90
25410;DHT22;13339;50.840;4.346;2023-09-18T09:02:34;22.50;99.90
25410;DHT22;13339;50.840;4.346;2023-09-18T09:04:59;22.50;99.90
25410;DHT22;13339;50.840;4.346;2023-09-18T09:07:26;22.50;99.90
25410;DHT22;13339;50.840;4.346;2023-09-18T09:09:51;22.40;99.90
25410;DHT22;13339;50.840;4.346;2023-09-18T09:12:53;22.50;99.90
25410;DHT22;13339;50.840;4.346;2023-09-18T09:15:20;22.60;99.90
25410;DHT22;13339;50.840;4.346;2023-09-18T09:17:46;22.50;99.90
25410;DHT22;13339;50.840;4.346;2023-09-18T09:20:13;22.50;99.90
25410;DHT22;13339;50.840;4.346;2023-09-18T09:22:40;22.50;99.90
25410;DHT22;13339;50.840;4.346;2023-09-18T09:25:27;22.60;99.90
25410;DHT22;13339;50.840;4.346;2023-09-18T09:27:54;22.60;99.90
25410;DHT22;13339;50.840;4.346;2023-09-18T09:30:24;22.50;99.90
25410;DHT22;13339;50.840;4.346;2023-09-18T09:32:52;22.40;99.90
25410;DHT22;13339;50.840;4.346;2023-09-18T09:35:29;22.30;99.90
25410;DHT22;13339;50.840;4.346;2023-09-18T09:38:01;22.40;99.90
25410;DHT22;13339;50.840;4.346;2023-09-18T09:40:28;22.40;99.90
25410;DHT22;13339;50.840;4.346;2023-09-18T09:42:55;22.40;99.90
25410;DHT22;13339;50.840;4.346;2023-09-18T09:45:29;22.40;99.90
25410;DHT22;13339;50.840;4.346;2023-09-18T09:47:56;22.40;99.90
25410;DHT22;13339;50.840;4.346;2023-09-18T09:50:23;22.30;99.90
25410;DHT22;13339;50.840;4.346;2023-09-18T09:52:51;22.30;99.90
25410;DHT22;13339;50.840;4.346;2023-09-18T09:55:31;22.40;99.90
25410;DHT22;13339;50.840;4.346;2023-09-18T10:00:46;22.30;99.90
25410;DHT22;13339;50.840;4.346;2023-09-18T10:03:16;22.40;99.90
25410;DHT22;13339;50.840;4.346;2023-09-18T10:05:43;22.40;99.90
25410;DHT22;13339;50.840;4.346;2023-09-18T10:08:18;22.40;99.90
25410;DHT22;13339;50.840;4.346;2023-09-18T10:10:49;22.50;99.90
25410;DHT22;13339;50.840;4.346;2023-09-18T10:13:59;22.50;99.90
25410;DHT22;13339;50.840;4.346;2023-09-18T10:16:07;22.40;99.90
25410;DHT22;13339;50.840;4.346;2023-09-18T10:24:28;22.20;99.90
25410;DHT22;13339;50.840;4.346;2023-09-18T10:26:43;22.30;99.90
25410;DHT22;13339;50.840;4.346;2023-09-18T10:29:14;22.30;99.90
25410;DHT22;13339;50.840;4.346;2023-09-18T10:31:43;22.30;99.90
25410;DHT22;13339;50.840;4.346;2023-09-18T10:34:11;22.40;99.90
25410;DHT22;13339;50.840;4.346;2023-09-18T10:36:41;22.50;99.90
25410;DHT22;13339;50.840;4.346;2023-09-18T10:39:09;22.40;99.90
25410;DHT22;13339;50.840;4.346;2023-09-18T10:41:38;22.30;99.90
25410;DHT22;13339;50.840;4.346;2023-09-18T10:44:05;22.20;99.90
25410;DHT22;13339;50.840;4.346;2023-09-18T10:46:31;22.30;99.90
25410;DHT22;13339;50.840;4.346;2023-09-18T10:48:59;22.40;99.90
25410;DHT22;13339;50.840;4.346;2023-09-18T10:51:25;22.30;99.90
25410;DHT22;13339;50.840;4.346;2023-09-18T10:53:51;22.40;99.90
25410;DHT22;13339;50.840;4.346;2023-09-18T10:56:20;22.70;99.90
25410;DHT22;13339;50.840;4.346;2023-09-18T10:58:45;22.90;99.90
25410;DHT22;13339;50.840;4.346;2023-09-18T11:01:12;23.00;99.90
25410;DHT22;13339;50.840;4.346;2023-09-18T11:03:38;23.20;99.90
25410;DHT22;13339;50.840;4.346;2023-09-18T11:06:06;22.90;99.90
25410;DHT22;13339;50.840;4.346;2023-09-18T11:08:46;23.10;99.90
25410;DHT22;13339;50.840;4.346;2023-09-18T11:11:13;23.20;99.90
25410;DHT22;13339;50.840;4.346;2023-09-18T11:13:48;23.40;99.90
25410;DHT22;13339;50.840;4.346;2023-09-18T11:16:33;23.50;99.90
25410;DHT22;13339;50.840;4.346;2023-09-18T11:21:33;23.80;99.90
25410;DHT22;13339;50.840;4.346;2023-09-18T11:24:02;23.90;99.90
25410;DHT22;13339;50.840;4.346;2023-09-18T11:26:33;24.00;99.90
25410;DHT22;13339;50.840;4.346;2023-09-18T11:29:07;24.10;99.90
25410;DHT22;13339;50.840;4.346;2023-09-18T11:34:14;24.00;99.90
25410;DHT22;13339;50.840;4.346;2023-09-18T11:36:40;23.90;99.90
25410;DHT22;13339;50.840;4.346;2023-09-18T11:39:06;23.80;99.90
25410;DHT22;13339;50.840;4.346;2023-09-18T11:41:33;23.70;99.90
25410;DHT22;13339;50.840;4.346;2023-09-18T11:46:51;23.90;99.90
25410;DHT22;13339;50.840;4.346;2023-09-18T11:49:24;24.00;99.90
25410;DHT22;13339;50.840;4.346;2023-09-18T11:51:54;24.20;99.90
25410;DHT22;13339;50.840;4.346;2023-09-18T11:54:20;24.30;99.90
25410;DHT22;13339;50.840;4.346;2023-09-18T11:56:47;24.50;99.90
25410;DHT22;13339;50.840;4.346;2023-09-18T11:59:13;24.70;99.90
25410;DHT22;13339;50.840;4.346;2023-09-18T12:01:38;24.70;99.90
25410;DHT22;13339;50.840;4.346;2023-09-18T12:04:12;24.90;99.90
25410;DHT22;13339;50.840;4.346;2023-09-18T12:06:41;24.90;99.90
25410;DHT22;13339;50.840;4.346;2023-09-18T12:09:07;25.00;99.90
25410;DHT22;13339;50.840;4.346;2023-09-18T12:11:34;25.00;99.90
25410;DHT22;13339;50.840;4.346;2023-09-18T12:14:03;25.10;99.90
25410;DHT22;13339;50.840;4.346;2023-09-18T12:16:29;25.20;99.90
25410;DHT22;13339;50.840;4.346;2023-09-18T12:18:55;25.40;99.90
25410;DHT22;13339;50.840;4.346;2023-09-18T12:21:22;25.50;99.90
25410;DHT22;13339;50.840;4.346;2023-09-18T12:23:48;25.60;99.90
25410;DHT22;13339;50.840;4.346;2023-09-18T12:26:15;25.60;99.90
25410;DHT22;13339;50.840;4.346;2023-09-18T12:28:43;25.60;99.90
25410;DHT22;13339;50.840;4.346;2023-09-18T12:31:15;25.70;99.90
25410;DHT22;13339;50.840;4.346;2023-09-18T12:33:42;25.70;99.90
25410;DHT22;13339;50.840;4.346;2023-09-18T12:36:12;25.80;99.90
25410;DHT22;13339;50.840;4.346;2023-09-18T12:38:40;25.80;99.90
25410;DHT22;13339;50.840;4.346;2023-09-18T12:41:06;25.90;99.90
25410;DHT22;13339;50.840;4.346;2023-09-18T12:43:49;26.00;99.90
25410;DHT22;13339;50.840;4.346;2023-09-18T12:46:15;25.90;99.90
25410;DHT22;13339;50.840;4.346;2023-09-18T12:48:41;26.00;99.90
25410;DHT22;13339;50.840;4.346;2023-09-18T12:51:10;26.10;99.90
25410;DHT22;13339;50.840;4.346;2023-09-18T12:53:37;26.00;99.90
25410;DHT22;13339;50.840;4.346;2023-09-18T12:56:13;26.00;99.90
25410;DHT22;13339;50.840;4.346;2023-09-18T12:58:40;25.90;99.90
25410;DHT22;13339;50.840;4.346;2023-09-18T13:01:08;25.90;99.90
25410;DHT22;13339;50.840;4.346;2023-09-18T13:03:42;26.00;99.90
25410;DHT22;13339;50.840;4.346;2023-09-18T13:06:20;26.10;99.90
25410;DHT22;13339;50.840;4.346;2023-09-18T13:08:47;26.20;99.90
25410;DHT22;13339;50.840;4.346;2023-09-18T13:11:13;26.20;99.90
25410;DHT22;13339;50.840;4.346;2023-09-18T13:13:42;26.20;99.90
25410;DHT22;13339;50.840;4.346;2023-09-18T13:16:09;26.20;99.90
25410;DHT22;13339;50.840;4.346;2023-09-18T13:18:35;26.00;99.90
25410;DHT22;13339;50.840;4.346;2023-09-18T13:21:11;26.00;99.90
25410;DHT22;13339;50.840;4.346;2023-09-18T13:23:38;26.00;99.90
25410;DHT22;13339;50.840;4.346;2023-09-18T13:26:05;26.00;99.90
25410;DHT22;13339;50.840;4.346;2023-09-18T13:28:31;26.00;99.90
25410;DHT22;13339;50.840;4.346;2023-09-18T13:30:58;25.90;99.90
25410;DHT22;13339;50.840;4.346;2023-09-18T13:33:25;25.90;99.90
25410;DHT22;13339;50.840;4.346;2023-09-18T13:35:54;25.90;99.90
25410;DHT22;13339;50.840;4.346;2023-09-18T13:38:22;26.00;99.90
25410;DHT22;13339;50.840;4.346;2023-09-18T13:40:47;26.10;99.90
25410;DHT22;13339;50.840;4.346;2023-09-18T13:43:15;26.00;99.90
25410;DHT22;13339;50.840;4.346;2023-09-18T13:45:41;26.00;99.90
25410;DHT22;13339;50.840;4.346;2023-09-18T13:48:07;26.00;99.90
25410;DHT22;13339;50.840;4.346;2023-09-18T13:50:34;26.10;99.90
25410;DHT22;13339;50.840;4.346;2023-09-18T13:53:02;26.00;99.90
25410;DHT22;13339;50.840;4.346;2023-09-18T13:55:30;25.80;99.90
25410;DHT22;13339;50.840;4.346;2023-09-18T13:57:55;25.60;99.90
25410;DHT22;13339;50.840;4.346;2023-09-18T14:00:22;25.70;99.90
25410;DHT22;13339;50.840;4.346;2023-09-18T14:02:48;25.50;99.90
25410;DHT22;13339;50.840;4.346;2023-09-18T14:05:14;25.50;99.90
25410;DHT22;13339;50.840;4.346;2023-09-18T14:07:40;25.30;99.90
25410;DHT22;13339;50.840;4.346;2023-09-18T14:10:10;25.30;99.90
25410;DHT22;13339;50.840;4.346;2023-09-18T14:12:39;25.20;99.90
25410;DHT22;13339;50.840;4.346;2023-09-18T14:15:06;25.10;99.90
25410;DHT22;13339;50.840;4.346;2023-09-18T14:17:33;25.10;99.90
25410;DHT22;13339;50.840;4.346;2023-09-18T14:19:59;25.20;99.90
25410;DHT22;13339;50.840;4.346;2023-09-18T14:22:25;25.20;99.90
25410;DHT22;13339;50.840;4.346;2023-09-18T14:24:51;25.20;99.90
25410;DHT22;13339;50.840;4.346;2023-09-18T14:27:17;25.20;99.90
25410;DHT22;13339;50.840;4.346;2023-09-18T14:29:42;25.10;99.90
25410;DHT22;13339;50.840;4.346;2023-09-18T14:32:08;25.10;99.90
25410;DHT22;13339;50.840;4.346;2023-09-18T14:34:35;25.10;99.90
25410;DHT22;13339;50.840;4.346;2023-09-18T14:37:04;24.90;99.90
25410;DHT22;13339;50.840;4.346;2023-09-18T14:39:31;24.80;99.90
25410;DHT22;13339;50.840;4.346;2023-09-18T14:41:58;24.40;99.90
25410;DHT22;13339;50.840;4.346;2023-09-18T14:44:25;24.00;99.90
25410;DHT22;13339;50.840;4.346;2023-09-18T14:46:51;23.60;99.90
25410;DHT22;13339;50.840;4.346;2023-09-18T14:49:18;23.40;99.90
25410;DHT22;13339;50.840;4.346;2023-09-18T14:51:44;22.90;99.90
25410;DHT22;13339;50.840;4.346;2023-09-18T14:54:09;22.70;99.90
25410;DHT22;13339;50.840;4.346;2023-09-18T14:56:36;22.50;99.90
25410;DHT22;13339;50.840;4.346;2023-09-18T14:59:02;22.40;99.90
25410;DHT22;13339;50.840;4.346;2023-09-18T15:01:28;22.40;99.90
25410;DHT22;13339;50.840;4.346;2023-09-18T15:03:54;22.40;99.90
25410;DHT22;13339;50.840;4.346;2023-09-18T15:06:20;22.30;99.90
25410;DHT22;13339;50.840;4.346;2023-09-18T15:08:46;22.40;99.90
25410;DHT22;13339;50.840;4.346;2023-09-18T15:11:12;22.40;99.90
25410;DHT22;13339;50.840;4.346;2023-09-18T15:13:38;22.40;99.90
25410;DHT22;13339;50.840;4.346;2023-09-18T15:16:04;22.40;99.90
25410;DHT22;13339;50.840;4.346;2023-09-18T15:18:31;22.30;99.90
25410;DHT22;13339;50.840;4.346;2023-09-18T15:20:57;22.40;99.90
25410;DHT22;13339;50.840;4.346;2023-09-18T15:23:25;22.40;99.90
25410;DHT22;13339;50.840;4.346;2023-09-18T15:25:52;22.50;99.90
25410;DHT22;13339;50.840;4.346;2023-09-18T15:28:20;22.50;99.90
25410;DHT22;13339;50.840;4.346;2023-09-18T15:30:46;22.50;99.90
25410;DHT22;13339;50.840;4.346;2023-09-18T15:33:13;22.40;99.90
25410;DHT22;13339;50.840;4.346;2023-09-18T15:35:40;22.50;99.90
25410;DHT22;13339;50.840;4.346;2023-09-18T15:38:05;22.40;99.90
25410;DHT22;13339;50.840;4.346;2023-09-18T15:40:34;22.30;99.90
25410;DHT22;13339;50.840;4.346;2023-09-18T15:43:00;22.20;99.90
25410;DHT22;13339;50.840;4.346;2023-09-18T15:45:25;22.30;99.90
25410;DHT22;13339;50.840;4.346;2023-09-18T15:47:51;22.30;99.90